IRM1060 OIII-OIAW
Flight info
| Callsign | IRM1060 |
|---|---|
| Flight time | N/A |
| Altitude | 32000 |
| Route | EGVEL B417 IMKEN W6 ITIBI |
| Aircraft | RJ1H/M-SDFGIRWY/LB1 |
Departure
| Time | 2026-04-18 09:59 |
|---|---|
| Airport | Mehrabad International Airport (OIII) |
Arrival
| Time | N/A |
|---|---|
| Airport | Qasem Soleimani International Airport (OIAW) |
| Time | Latitude | Longitude | Altitude | Speed | Heading |
|---|---|---|---|---|---|
| 2026-04-18 08:42 | 35.69253 | 51.31198 | 3926 ft | 0 kts | 19° |
| 2026-04-18 09:50 | 35.69264 | 51.31202 | 3922 ft | 2 kts | 14° |
| 2026-04-18 09:50 | 35.69285 | 51.31204 | 3920 ft | 4 kts | 356° |
| 2026-04-18 09:51 | 35.69309 | 51.31193 | 3922 ft | 4 kts | 321° |
| 2026-04-18 09:51 | 35.69325 | 51.31162 | 3924 ft | 5 kts | 286° |
| 2026-04-18 09:51 | 35.69328 | 51.31097 | 3926 ft | 10 kts | 268° |
| 2026-04-18 09:51 | 35.69305 | 51.31016 | 3927 ft | 11 kts | 199° |
| 2026-04-18 09:52 | 35.69290 | 51.31012 | 3926 ft | 0 kts | 188° |
| 2026-04-18 09:52 | 35.69250 | 51.31011 | 3922 ft | 11 kts | 160° |
| 2026-04-18 09:52 | 35.69210 | 51.31112 | 3917 ft | 15 kts | 109° |
| 2026-04-18 09:52 | 35.69173 | 51.31238 | 3912 ft | 17 kts | 109° |
| 2026-04-18 09:53 | 35.69132 | 51.31377 | 3906 ft | 18 kts | 109° |
| 2026-04-18 09:53 | 35.69093 | 51.31512 | 3897 ft | 16 kts | 109° |
| 2026-04-18 09:53 | 35.69052 | 51.31652 | 3892 ft | 18 kts | 109° |
| 2026-04-18 09:53 | 35.69009 | 51.31802 | 3885 ft | 20 kts | 109° |
| 2026-04-18 09:54 | 35.68962 | 51.31972 | 3878 ft | 22 kts | 109° |
| 2026-04-18 09:54 | 35.68911 | 51.32150 | 3877 ft | 22 kts | 109° |
| 2026-04-18 09:54 | 35.68859 | 51.32328 | 3868 ft | 23 kts | 110° |
| 2026-04-18 09:54 | 35.68804 | 51.32516 | 3856 ft | 24 kts | 110° |
| 2026-04-18 09:55 | 35.68747 | 51.32712 | 3845 ft | 25 kts | 110° |
| 2026-04-18 09:55 | 35.68687 | 51.32916 | 3837 ft | 26 kts | 109° |
| 2026-04-18 09:55 | 35.68626 | 51.33128 | 3830 ft | 27 kts | 109° |
| 2026-04-18 09:55 | 35.68563 | 51.33345 | 3821 ft | 26 kts | 109° |
| 2026-04-18 09:56 | 35.68497 | 51.33485 | 3815 ft | 14 kts | 160° |
| 2026-04-18 09:56 | 35.68451 | 51.33479 | 3813 ft | 0 kts | 195° |
| 2026-04-18 09:56 | 35.68437 | 51.33474 | 3810 ft | 11 kts | 196° |
| 2026-04-18 09:56 | 35.68374 | 51.33448 | 3812 ft | 0 kts | 199° |
| 2026-04-18 09:57 | 35.68366 | 51.33445 | 3811 ft | 8 kts | 199° |
| 2026-04-18 09:57 | 35.68279 | 51.33407 | 3806 ft | 14 kts | 199° |
| 2026-04-18 09:57 | 35.68247 | 51.33350 | 3806 ft | 5 kts | 311° |
| 2026-04-18 09:58 | 35.68250 | 51.33344 | 3807 ft | 0 kts | 289° |
| 2026-04-18 09:58 | 35.68260 | 51.33307 | 3808 ft | 19 kts | 289° |
| 2026-04-18 09:58 | 35.68370 | 51.32924 | 3820 ft | 73 kts | 289° |
| 2026-04-18 09:58 | 35.68600 | 51.32141 | 3838 ft | 121 kts | 289° |
| 2026-04-18 09:59 | 35.68919 | 51.31011 | 3924 ft | 155 kts | 287° |
| 2026-04-18 09:59 | 35.69309 | 51.29720 | 4259 ft | 165 kts | 289° |
| 2026-04-18 09:59 | 35.69703 | 51.28365 | 4722 ft | 170 kts | 281° |
| 2026-04-18 10:00 | 35.68879 | 51.25862 | 5646 ft | 161 kts | 230° |
| 2026-04-18 10:00 | 35.68228 | 51.24805 | 6201 ft | 154 kts | 232° |
| 2026-04-18 10:00 | 35.67599 | 51.23762 | 6628 ft | 151 kts | 232° |
| 2026-04-18 10:00 | 35.66960 | 51.22741 | 7017 ft | 150 kts | 231° |
| 2026-04-18 10:01 | 35.66292 | 51.21697 | 7191 ft | 166 kts | 231° |
| 2026-04-18 10:01 | 35.65518 | 51.20513 | 7240 ft | 187 kts | 231° |
| 2026-04-18 10:01 | 35.64663 | 51.19220 | 7312 ft | 202 kts | 231° |
| 2026-04-18 10:01 | 35.63732 | 51.17819 | 7347 ft | 224 kts | 231° |
| 2026-04-18 10:02 | 35.62714 | 51.16285 | 7627 ft | 232 kts | 231° |
| 2026-04-18 10:02 | 35.61694 | 51.14765 | 8272 ft | 231 kts | 231° |
| 2026-04-18 10:02 | 35.60643 | 51.13239 | 8744 ft | 239 kts | 231° |
| 2026-04-18 10:02 | 35.59520 | 51.11630 | 9056 ft | 256 kts | 231° |
| 2026-04-18 10:03 | 35.58345 | 51.09948 | 9384 ft | 270 kts | 231° |
| 2026-04-18 10:03 | 35.57086 | 51.08156 | 9772 ft | 282 kts | 230° |
| 2026-04-18 10:03 | 35.55705 | 51.06424 | 10316 ft | 286 kts | 228° |
| 2026-04-18 10:03 | 35.54343 | 51.04628 | 10896 ft | 288 kts | 230° |
| 2026-04-18 10:04 | 35.52986 | 51.02802 | 11506 ft | 290 kts | 231° |
| 2026-04-18 10:04 | 35.51619 | 51.00980 | 12121 ft | 292 kts | 231° |
| 2026-04-18 10:04 | 35.50226 | 50.99144 | 12752 ft | 295 kts | 231° |
| 2026-04-18 10:04 | 35.48819 | 50.97307 | 13386 ft | 297 kts | 231° |
| 2026-04-18 10:05 | 35.47317 | 50.95582 | 13982 ft | 303 kts | 223° |
| 2026-04-18 10:05 | 35.45638 | 50.94007 | 14540 ft | 306 kts | 222° |
| 2026-04-18 10:05 | 35.43919 | 50.92444 | 15087 ft | 308 kts | 221° |
| 2026-04-18 10:05 | 35.42183 | 50.90881 | 15619 ft | 310 kts | 222° |
| 2026-04-18 10:06 | 35.40474 | 50.89269 | 16087 ft | 314 kts | 222° |
| 2026-04-18 10:06 | 35.38627 | 50.87699 | 16134 ft | 332 kts | 217° |
| 2026-04-18 10:06 | 35.36590 | 50.86227 | 16148 ft | 347 kts | 213° |
| 2026-04-18 10:06 | 35.34415 | 50.84862 | 16317 ft | 355 kts | 210° |
| 2026-04-18 10:07 | 35.32170 | 50.83569 | 16646 ft | 357 kts | 210° |